MMZC/ZCL METAR and TAF weather

Enter ICAO airport designator
Station Type Date Time Source
MMZC METAR 2020/04/09 09:40 UTC NOAA

MMZC 090940Z 00000KT 10SM SCT200 10/M07 A3024 RMK 8/001


Station Type Date Time Source
MMZC Decoded METAR 2020/04/09 09:40 UTC NOAA

Zacatecas Airport, Mexico (MMZC) 22-54N 102-41W
Apr 09, 2020 - 05:40 AM EDT / 2020.04.09 0940 UTC
Wind: Calm:0
Visibility: 10 mile(s):0
Sky conditions: partly cloudy
Temperature: 50 F (10 C)
Dew Point: 19 F (-7 C)
Relative Humidity: 29%
Pressure (altimeter): 30.24 in. Hg (1024 hPa)
ob: MMZC 090940Z 00000KT 10SM SCT200 10/M07 A3024 RMK 8/001
cycle: 9

Station Type Date Time Source
MMZC TAF 2020/04/09 12:31 UTC NOAA

TAF MMZC 091024Z 0912/1018 24005KT P6SM SCT250 TX27/0920Z TN09/0912Z
FM091500 22015KT P6SM SCT120 BKN250
FM100300 23008KT P6SM BKN250
FM101600 23015KT P6SM BKN250

Example: see airport list